Main page
METAR-TAF:

METAR-TAF

Airports :

Malmen Airbase

Linköping, Sweden

latitude: 58-24N, longitude: 015-31E, elevation: 93 m

Current weather observation

The report was made 46 minutes ago, at 05:20 UTC
Wind 5 kt from the South/Southeast
Temperature 16°C
Humidity 88%
Pressure 1013 hPa
Visibility 10 km or more

METAR: ESCF 150520Z AUTO 16005KT 9999 BKN098/// 16/14 Q1013

Time: 08:06 (06:06 UTC)

Forecast

The report was made 36 minutes ago, at 05:30 UTC
Forecast valid from 15 at 06 UTC to 15 at 14 UTC
Wind 4 kt from the South/Southeast
Visibility 10 km or more
no clouds below 1500 m and no cumulonimbus
Becoming
from 15 at 06 UTC to 15 at 09 UTC
Scattered clouds at a height of 2000 ft
Temporary
from 15 at 09 UTC to 15 at 14 UTC
Visibility: 5000 m
Broken clouds at a height of 2000 ft, Cumulonimbus.
rain showers,

TAF: ESCF 150530Z 1506/1514 15004KT CAVOK BECMG 1506/1509 SCT020 TEMPO 1509/1514 5000 SHRA BKN020CB

Weather observations and forecasts of more than 4000 airports (METAR and TAF reports).

The available stations are represented by yellow and red dots on the map.

Hover mouse over dot to see the name of the station.

Then click to see weather observations and forecasts.

To change the map : click on the green buttons with a black cross to zoom in, on the green button with a dash to zoom out, or on the green arrows for adjacent maps.


METAR-TAF: